createdAt,value
2024-01-11T00:01:54.209Z,34.97
2024-01-11T00:04:20.997Z,27.77
2024-01-11T00:06:48.178Z,25.03
2024-01-11T00:09:14.954Z,22.17
2024-01-11T00:11:42.670Z,24.47
2024-01-11T00:14:09.619Z,22.83
2024-01-11T00:16:36.346Z,26.87
2024-01-11T00:19:03.572Z,41.20
2024-01-11T00:21:30.380Z,45.10
2024-01-11T00:23:57.516Z,30.93
2024-01-11T00:26:24.312Z,34.53
2024-01-11T00:28:51.454Z,34.33
2024-01-11T00:31:18.349Z,32.10
2024-01-11T00:33:45.511Z,31.30
2024-01-11T00:36:19.092Z,32.60
2024-01-11T00:38:46.204Z,32.20
2024-01-11T00:41:12.999Z,34.90
2024-01-11T00:43:40.132Z,31.73
2024-01-11T00:46:06.958Z,32.57
2024-01-11T00:48:34.230Z,29.57
2024-01-11T00:51:01.102Z,25.23
2024-01-11T00:53:32.073Z,32.27
2024-01-11T00:55:59.318Z,42.37
2024-01-11T00:58:26.696Z,38.87
2024-01-11T01:00:55.185Z,29.83
2024-01-11T01:03:22.963Z,28.53
2024-01-11T01:05:49.833Z,28.93
2024-01-11T01:08:16.975Z,22.50
2024-01-11T01:10:44.245Z,24.63
2024-01-11T01:13:11.339Z,25.23
2024-01-11T01:15:38.081Z,21.13
2024-01-11T01:18:06.381Z,23.23
2024-01-11T01:20:33.502Z,20.30
2024-01-11T01:23:00.812Z,19.23
2024-01-11T01:25:28.612Z,19.60
2024-01-11T01:27:56.437Z,17.37
2024-01-11T01:30:24.371Z,17.90
2024-01-11T01:32:51.552Z,18.93
2024-01-11T01:35:18.651Z,18.83
2024-01-11T01:37:46.124Z,20.37
2024-01-11T01:40:13.554Z,19.87
2024-01-11T01:42:47.272Z,19.90
2024-01-11T01:45:14.994Z,18.57
2024-01-11T01:47:43.822Z,19.40
2024-01-11T01:50:12.453Z,20.47
2024-01-11T01:52:42.488Z,18.73
2024-01-11T01:55:11.536Z,19.17
2024-01-11T01:57:40.957Z,16.92
2024-01-11T02:00:11.803Z,21.80
2024-01-11T02:02:41.502Z,19.83
2024-01-11T02:05:08.967Z,18.13
2024-01-11T02:07:36.658Z,18.13
2024-01-11T02:10:04.566Z,18.90
2024-01-11T02:12:32.245Z,18.87
2024-01-11T02:14:59.858Z,18.27
2024-01-11T02:17:27.104Z,19.40
2024-01-11T02:19:53.995Z,19.60
2024-01-11T02:22:33.524Z,19.37
2024-01-11T02:25:00.356Z,18.27
2024-01-11T02:27:27.613Z,17.27
2024-01-11T02:29:54.422Z,17.40
2024-01-11T02:32:21.801Z,18.33
2024-01-11T02:34:49.663Z,18.30
2024-01-11T02:37:17.515Z,17.13
2024-01-11T02:39:44.391Z,15.50
2024-01-11T02:42:11.423Z,15.83
2024-01-11T02:44:38.396Z,16.67
2024-01-11T02:47:05.634Z,15.57
2024-01-11T02:49:32.447Z,16.50
2024-01-11T02:51:59.537Z,16.60
2024-01-11T02:54:26.279Z,14.80
2024-01-11T02:56:53.379Z,16.20
2024-01-11T02:59:20.239Z,16.10
2024-01-11T03:01:47.454Z,14.03
2024-01-11T03:04:15.326Z,13.53
2024-01-11T03:06:42.599Z,15.20
2024-01-11T03:09:09.363Z,17.33
2024-01-11T03:11:36.768Z,26.73
2024-01-11T03:14:03.955Z,70.73
2024-01-11T03:16:31.202Z,39.90
2024-01-11T03:18:58.409Z,28.90
2024-01-11T03:21:25.515Z,32.70
2024-01-11T03:23:52.308Z,29.80
2024-01-11T03:26:19.525Z,25.87
2024-01-11T03:28:46.349Z,33.93
2024-01-11T03:31:13.469Z,45.87
2024-01-11T03:33:40.637Z,35.87
2024-01-11T03:36:12.258Z,71.23
2024-01-11T03:38:39.456Z,19.67
2024-01-11T03:41:13.387Z,22.10
2024-01-11T03:43:40.302Z,18.67
2024-01-11T03:46:07.538Z,13.83
2024-01-11T03:48:36.999Z,12.97
2024-01-11T03:51:04.735Z,11.07
2024-01-11T03:53:31.534Z,12.93
2024-01-11T03:55:58.663Z,13.23
2024-01-11T03:58:25.470Z,10.97
2024-01-11T04:00:52.534Z,10.73
2024-01-11T04:03:19.350Z,11.17
2024-01-11T04:05:46.801Z,10.43
2024-01-11T04:08:13.740Z,10.20
2024-01-11T04:10:40.968Z,9.43
2024-01-11T04:13:08.396Z,10.70
2024-01-11T04:15:37.747Z,9.10
2024-01-11T04:18:05.262Z,9.77
2024-01-11T04:20:32.741Z,9.33
2024-01-11T04:22:59.554Z,8.17
2024-01-11T04:25:26.736Z,7.83
2024-01-11T04:27:54.164Z,7.83
2024-01-11T04:30:21.250Z,8.27
2024-01-11T04:32:48.198Z,11.60
2024-01-11T04:35:15.459Z,8.33
2024-01-11T04:37:42.424Z,6.13
2024-01-11T04:40:10.069Z,4.70
2024-01-11T04:42:36.920Z,3.83
2024-01-11T04:45:06.120Z,3.97
2024-01-11T04:47:33.650Z,4.63
2024-01-11T04:50:01.103Z,4.07
2024-01-11T04:52:27.982Z,4.27
2024-01-11T04:54:55.092Z,5.60
2024-01-11T04:57:21.909Z,3.90
2024-01-11T04:59:49.058Z,5.90
2024-01-11T05:02:15.962Z,5.20
2024-01-11T05:04:42.987Z,4.70
2024-01-11T05:07:09.727Z,5.70
2024-01-11T05:09:36.863Z,6.03
2024-01-11T05:12:04.113Z,5.67
2024-01-11T05:14:31.234Z,5.40
2024-01-11T05:16:58.148Z,6.03
2024-01-11T05:19:27.176Z,7.07
2024-01-11T05:21:53.942Z,6.00
2024-01-11T05:24:21.198Z,5.77
2024-01-11T05:26:48.048Z,5.57
2024-01-11T05:29:15.205Z,7.63
2024-01-11T05:31:42.189Z,6.80
2024-01-11T05:34:10.148Z,6.77
2024-01-11T05:36:37.050Z,5.67
2024-01-11T05:39:04.330Z,6.40
2024-01-11T05:41:31.204Z,5.97
2024-01-11T05:43:58.433Z,6.13
2024-01-11T05:46:25.291Z,5.73
2024-01-11T05:48:52.564Z,5.43
2024-01-11T05:51:19.637Z,5.57
2024-01-11T05:53:46.926Z,5.53
2024-01-11T05:56:13.912Z,5.80
2024-01-11T05:58:41.281Z,6.70
2024-01-11T06:01:08.508Z,8.47
2024-01-11T06:03:36.352Z,7.67
2024-01-11T06:06:05.248Z,7.13
2024-01-11T06:08:32.819Z,5.77
2024-01-11T06:11:00.037Z,5.67
2024-01-11T06:13:27.666Z,4.93
2024-01-11T06:15:54.883Z,6.47
2024-01-11T06:18:22.284Z,7.27
2024-01-11T06:20:49.366Z,5.13
2024-01-11T06:23:18.116Z,5.30
2024-01-11T06:25:47.374Z,4.60
2024-01-11T06:28:14.807Z,5.53
2024-01-11T06:30:41.855Z,5.17
2024-01-11T06:33:09.144Z,6.67
2024-01-11T06:35:36.318Z,9.20
2024-01-11T06:38:03.764Z,12.67
2024-01-11T06:40:30.550Z,11.47
2024-01-11T06:42:57.741Z,14.87
2024-01-11T06:45:24.503Z,16.17
2024-01-11T06:47:51.767Z,14.43
2024-01-11T06:50:18.785Z,15.03
2024-01-11T06:52:45.925Z,12.53
2024-01-11T06:55:12.781Z,14.57
2024-01-11T06:57:40.129Z,12.93
2024-01-11T07:00:08.805Z,12.50
2024-01-11T07:02:36.369Z,12.13
2024-01-11T07:05:03.789Z,13.03
2024-01-11T07:07:31.343Z,12.37
2024-01-11T07:09:58.642Z,12.90
2024-01-11T07:12:26.759Z,13.03
2024-01-11T07:14:53.606Z,12.53
2024-01-11T07:17:20.690Z,12.70
2024-01-11T07:19:47.520Z,13.67
2024-01-11T07:22:14.794Z,15.80
2024-01-11T07:24:41.477Z,19.67
2024-01-11T07:27:08.875Z,19.57
2024-01-11T07:29:36.415Z,21.53
2024-01-11T07:32:05.214Z,34.33
2024-01-11T07:34:34.402Z,20.23
2024-01-11T07:37:01.745Z,17.77
2024-01-11T07:39:28.742Z,24.80
2024-01-11T07:41:55.994Z,24.17
2024-01-11T07:44:22.807Z,29.17
2024-01-11T07:46:53.704Z,32.20
2024-01-11T07:49:22.278Z,43.40
2024-01-11T07:51:50.195Z,54.77
2024-01-11T07:54:17.360Z,27.70
2024-01-11T07:56:44.766Z,25.40
2024-01-11T07:59:15.727Z,23.77
2024-01-11T08:01:43.874Z,27.60
2024-01-11T08:04:11.073Z,15.53
2024-01-11T08:06:38.899Z,11.70
2024-01-11T08:09:06.503Z,17.20
2024-01-11T08:11:36.532Z,29.63
2024-01-11T08:14:06.798Z,25.20
2024-01-11T08:16:34.424Z,11.48
2024-01-11T08:19:02.418Z,11.20
2024-01-11T08:21:30.144Z,11.70
2024-01-11T08:24:00.596Z,10.30
2024-01-11T08:26:31.450Z,11.20
2024-01-11T08:28:58.978Z,11.40
2024-01-11T08:31:26.122Z,12.60
2024-01-11T08:33:54.260Z,12.77
2024-01-11T08:36:21.554Z,17.37
2024-01-11T08:38:48.821Z,10.30
2024-01-11T08:41:16.120Z,15.27
2024-01-11T08:43:42.991Z,10.55
2024-01-11T08:46:10.058Z,16.80
2024-01-11T08:48:36.967Z,8.27
2024-01-11T08:51:04.587Z,9.45
2024-01-11T08:53:31.454Z,6.10
2024-01-11T08:55:58.728Z,6.47
2024-01-11T08:58:25.598Z,5.95
2024-01-11T09:00:52.698Z,7.25
2024-01-11T09:03:19.545Z,7.55
2024-01-11T09:05:47.013Z,8.65
2024-01-11T09:08:13.946Z,10.90
2024-01-11T09:10:42.873Z,10.95
2024-01-11T09:13:11.622Z,7.40
2024-01-11T09:15:39.575Z,7.63
2024-01-11T09:18:06.570Z,6.25
2024-01-11T09:20:34.859Z,6.50
2024-01-11T09:23:04.793Z,8.95
2024-01-11T09:25:32.216Z,10.82
2024-01-11T09:27:59.172Z,13.60
2024-01-11T09:30:26.437Z,9.50
2024-01-11T09:32:53.853Z,10.05
2024-01-11T09:35:24.230Z,9.88
2024-01-11T09:37:51.951Z,9.80
2024-01-11T09:40:20.275Z,10.40
2024-01-11T09:42:47.088Z,11.93
2024-01-11T09:45:18.476Z,14.20
2024-01-11T09:47:49.954Z,17.58
2024-01-11T09:50:18.924Z,21.92
2024-01-11T09:52:51.507Z,26.17
2024-01-11T09:55:19.585Z,19.02
2024-01-11T09:57:48.366Z,12.25
2024-01-11T10:00:23.173Z,12.02
2024-01-11T10:02:50.976Z,10.98
2024-01-11T10:05:19.906Z,23.30
2024-01-11T10:07:46.991Z,19.55
2024-01-11T10:10:16.686Z,20.35
2024-01-11T10:12:43.867Z,24.30
2024-01-11T10:15:12.024Z,21.13
2024-01-11T10:17:47.131Z,15.60
2024-01-11T10:20:15.713Z,15.88
2024-01-11T10:22:43.746Z,7.35
2024-01-11T10:25:13.104Z,7.20
2024-01-11T10:27:46.797Z,9.93
2024-01-11T10:30:17.521Z,7.70
2024-01-11T10:32:45.383Z,7.40
2024-01-11T10:35:12.810Z,6.93
2024-01-11T10:37:40.195Z,4.75
2024-01-11T10:40:15.828Z,3.95
2024-01-11T10:42:50.566Z,5.47
2024-01-11T10:45:19.503Z,6.60
2024-01-11T10:48:02.902Z,7.80
2024-01-11T10:50:35.745Z,13.18
2024-01-11T10:53:15.893Z,11.70
2024-01-11T10:55:43.872Z,11.18
2024-01-11T10:58:11.652Z,12.70
2024-01-11T11:00:39.098Z,9.07
2024-01-11T11:03:08.260Z,11.15
2024-01-11T11:05:36.595Z,16.83
2024-01-11T11:08:06.982Z,12.18
2024-01-11T11:10:35.489Z,13.20
2024-01-11T11:13:03.210Z,11.25
2024-01-11T11:15:30.591Z,13.40
2024-01-11T11:17:58.479Z,9.30
2024-01-11T11:20:26.216Z,6.25
2024-01-11T11:23:11.059Z,9.50
2024-01-11T11:25:39.883Z,9.07
2024-01-11T11:28:07.149Z,9.63
2024-01-11T11:30:37.735Z,8.82
2024-01-11T11:33:22.979Z,8.65
2024-01-11T11:35:56.982Z,7.53
2024-01-11T11:38:27.086Z,7.80
2024-01-11T11:40:55.847Z,7.13
2024-01-11T11:43:23.186Z,8.02
2024-01-11T11:45:52.544Z,7.88
2024-01-11T11:48:36.660Z,6.22
2024-01-11T11:51:19.891Z,7.30
2024-01-11T11:53:52.071Z,7.20
2024-01-11T11:56:21.470Z,8.48
2024-01-11T11:58:50.884Z,7.75
2024-01-11T12:01:18.598Z,6.82
2024-01-11T12:03:50.734Z,6.47
2024-01-11T12:06:20.410Z,7.60
2024-01-11T12:08:49.175Z,8.63
2024-01-11T12:11:22.421Z,9.00
2024-01-11T12:13:51.023Z,9.35
2024-01-11T12:16:18.393Z,9.73
2024-01-11T12:18:45.351Z,10.23
2024-01-11T12:21:12.538Z,11.27
2024-01-11T12:23:40.474Z,8.50
2024-01-11T12:26:16.311Z,8.20
2024-01-11T12:28:45.048Z,8.45
2024-01-11T12:31:13.930Z,10.57
2024-01-11T12:33:42.352Z,9.60
2024-01-11T12:36:10.314Z,11.30
2024-01-11T12:38:37.413Z,9.77
2024-01-11T12:41:07.332Z,9.25
2024-01-11T12:43:35.788Z,7.40
2024-01-11T12:46:03.924Z,7.78
2024-01-11T12:48:31.693Z,7.72
2024-01-11T12:51:10.285Z,6.90
2024-01-11T12:53:42.073Z,6.43
2024-01-11T12:56:11.883Z,6.93
2024-01-11T12:58:39.462Z,6.78
2024-01-11T13:01:08.946Z,8.20
2024-01-11T13:03:39.538Z,7.82
2024-01-11T13:06:07.299Z,8.05
2024-01-11T13:08:37.691Z,8.13
2024-01-11T13:11:08.351Z,6.97
2024-01-11T13:13:36.003Z,7.45
2024-01-11T13:16:07.341Z,8.48
2024-01-11T13:18:34.474Z,8.43
2024-01-11T13:21:01.749Z,8.38
2024-01-11T13:23:28.678Z,8.18
2024-01-11T13:25:55.808Z,8.70
2024-01-11T13:28:23.575Z,10.15
2024-01-11T13:30:51.056Z,7.88
2024-01-11T13:33:19.408Z,7.97
2024-01-11T13:35:47.315Z,7.90
2024-01-11T13:38:14.557Z,7.40
2024-01-11T13:40:43.014Z,7.30
2024-01-11T13:43:10.517Z,7.75
2024-01-11T13:45:38.337Z,6.50
2024-01-11T13:48:06.705Z,8.07
2024-01-11T13:50:34.692Z,7.85
2024-01-11T13:53:03.150Z,8.40
2024-01-11T13:55:31.645Z,7.93
2024-01-11T13:57:58.825Z,8.10
2024-01-11T14:00:25.751Z,7.63
2024-01-11T14:02:53.076Z,8.75
2024-01-11T14:05:20.245Z,8.65
2024-01-11T14:07:47.937Z,7.93
2024-01-11T14:10:16.073Z,7.95
2024-01-11T14:12:43.263Z,7.88
2024-01-11T14:15:14.415Z,8.40
2024-01-11T14:17:42.595Z,7.90
2024-01-11T14:20:15.739Z,7.93
2024-01-11T14:22:48.631Z,9.38
2024-01-11T14:25:22.597Z,8.63
2024-01-11T14:27:50.182Z,8.98
2024-01-11T14:30:18.007Z,7.85
2024-01-11T14:32:46.555Z,9.73
2024-01-11T14:35:13.997Z,9.18
2024-01-11T14:37:41.942Z,9.65
2024-01-11T14:40:13.054Z,8.27
2024-01-11T14:42:41.009Z,10.02
2024-01-11T14:45:09.033Z,9.98
2024-01-11T14:47:36.638Z,11.13
2024-01-11T14:50:05.598Z,11.02
2024-01-11T14:52:33.251Z,11.40
2024-01-11T14:55:00.364Z,11.98
2024-01-11T14:57:27.588Z,10.93
2024-01-11T14:59:54.612Z,11.80
2024-01-11T15:02:22.066Z,12.15
2024-01-11T15:04:49.839Z,12.45
2024-01-11T15:07:17.138Z,13.70
2024-01-11T15:09:44.377Z,12.43
2024-01-11T15:12:11.433Z,12.57
2024-01-11T15:14:38.358Z,11.93
2024-01-11T15:17:05.628Z,14.27
2024-01-11T15:19:32.721Z,12.85
2024-01-11T15:22:00.629Z,12.60
2024-01-11T15:24:29.399Z,14.47
2024-01-11T15:26:57.232Z,15.20
2024-01-11T15:29:24.171Z,14.80
2024-01-11T15:31:51.753Z,15.82
2024-01-11T15:34:19.558Z,14.63
2024-01-11T15:36:47.821Z,15.77
2024-01-11T15:39:24.623Z,18.23
2024-01-11T15:41:56.909Z,18.20
2024-01-11T15:44:25.746Z,15.68
2024-01-11T15:46:52.793Z,18.13
2024-01-11T15:49:19.590Z,18.27
2024-01-11T15:51:46.744Z,17.77
2024-01-11T15:54:14.237Z,19.27
2024-01-11T15:56:42.005Z,17.97
2024-01-11T15:59:09.089Z,18.07
2024-01-11T16:01:46.914Z,18.77
2024-01-11T16:04:24.133Z,20.33
2024-01-11T16:06:51.488Z,21.63
2024-01-11T16:09:19.156Z,22.63
2024-01-11T16:11:47.282Z,21.30
2024-01-11T16:14:14.234Z,23.73
2024-01-11T16:16:41.332Z,22.07
2024-01-11T16:19:08.423Z,23.27
2024-01-11T16:21:35.660Z,22.77
2024-01-11T16:24:03.205Z,23.67
2024-01-11T16:26:31.128Z,25.60
2024-01-11T16:28:58.438Z,24.30
2024-01-11T16:31:25.974Z,26.60
2024-01-11T16:33:54.131Z,27.30
2024-01-11T16:36:21.913Z,26.43
2024-01-11T16:38:49.204Z,30.73
2024-01-11T16:41:17.019Z,29.53
2024-01-11T16:43:47.025Z,32.93
2024-01-11T16:46:22.974Z,31.00
2024-01-11T16:48:51.405Z,33.37
2024-01-11T16:51:18.988Z,35.53
2024-01-11T16:53:47.446Z,35.47
2024-01-11T16:56:15.022Z,33.67
2024-01-11T16:58:43.048Z,35.17
2024-01-11T17:01:11.265Z,33.77
2024-01-11T17:03:38.510Z,34.57
2024-01-11T17:06:06.061Z,33.77
2024-01-11T17:08:33.355Z,32.73
2024-01-11T17:11:00.905Z,32.70
2024-01-11T17:13:27.675Z,34.23
2024-01-11T17:15:54.881Z,32.30
2024-01-11T17:18:24.736Z,32.90
2024-01-11T17:20:52.231Z,33.75
2024-01-11T17:23:19.574Z,33.37
2024-01-11T17:25:47.087Z,35.27
2024-01-11T17:28:14.089Z,35.20
2024-01-11T17:30:41.474Z,37.57
2024-01-11T17:33:08.503Z,38.13
2024-01-11T17:35:37.017Z,39.77
2024-01-11T17:38:04.105Z,38.97
2024-01-11T17:40:31.370Z,39.03
2024-01-11T17:42:59.855Z,40.30
2024-01-11T17:45:27.144Z,52.43
2024-01-11T17:47:54.444Z,55.17
2024-01-11T17:50:22.540Z,44.03
2024-01-11T17:52:51.726Z,43.33
2024-01-11T17:55:19.754Z,37.03
2024-01-11T17:57:46.719Z,33.43
2024-01-11T18:00:14.799Z,32.60
2024-01-11T18:02:41.743Z,31.43
2024-01-11T18:05:10.099Z,31.73
2024-01-11T18:07:37.139Z,29.97
2024-01-11T18:10:04.611Z,30.10
2024-01-11T18:12:31.435Z,31.20
2024-01-11T18:14:58.769Z,27.57
2024-01-11T18:17:25.741Z,27.37
2024-01-11T18:19:53.104Z,30.63
2024-01-11T18:22:19.974Z,28.27
2024-01-11T18:24:47.153Z,28.80
2024-01-11T18:27:14.178Z,26.17
2024-01-11T18:29:41.260Z,30.13
2024-01-11T18:32:08.184Z,28.90
2024-01-11T18:34:35.537Z,30.50
2024-01-11T18:37:02.647Z,31.93
2024-01-11T18:39:29.734Z,33.70
2024-01-11T18:41:58.879Z,36.03
2024-01-11T18:44:26.732Z,35.42
2024-01-11T18:46:53.836Z,31.20
2024-01-11T18:49:21.267Z,33.43
2024-01-11T18:51:48.183Z,29.33
2024-01-11T18:54:15.709Z,36.17
2024-01-11T18:56:42.819Z,33.30
2024-01-11T18:59:10.464Z,35.67
2024-01-11T19:01:37.299Z,41.27
2024-01-11T19:04:04.689Z,39.60
2024-01-11T19:06:31.714Z,36.67
2024-01-11T19:09:00.443Z,32.03
2024-01-11T19:11:27.358Z,34.63
2024-01-11T19:13:54.515Z,35.43
2024-01-11T19:16:21.325Z,35.33
2024-01-11T19:18:50.809Z,37.00
2024-01-11T19:21:19.387Z,36.83
2024-01-11T19:23:46.742Z,36.63
2024-01-11T19:26:13.820Z,35.50
2024-01-11T19:28:40.989Z,38.57
2024-01-11T19:31:08.097Z,35.77
2024-01-11T19:33:36.244Z,35.63
2024-01-11T19:36:03.226Z,34.30
2024-01-11T19:38:30.504Z,35.90
2024-01-11T19:40:57.399Z,36.93
2024-01-11T19:43:24.520Z,49.60
2024-01-11T19:45:51.493Z,40.67
2024-01-11T19:48:19.047Z,40.23
2024-01-11T19:50:48.471Z,42.73
2024-01-11T19:53:17.135Z,42.90
2024-01-11T19:55:44.049Z,40.70
2024-01-11T19:58:11.858Z,44.60
2024-01-11T20:00:42.257Z,39.47
2024-01-11T20:03:09.860Z,37.20
2024-01-11T20:05:37.195Z,42.93
2024-01-11T20:08:04.682Z,41.00
2024-01-11T20:10:32.428Z,40.83
2024-01-11T20:12:59.665Z,38.27
2024-01-11T20:15:26.595Z,37.37
2024-01-11T20:17:53.806Z,33.73
2024-01-11T20:20:20.687Z,36.13
2024-01-11T20:22:47.781Z,36.03
2024-01-11T20:25:14.781Z,39.07
2024-01-11T20:27:41.938Z,36.67
2024-01-11T20:30:12.053Z,35.87
2024-01-11T20:32:40.092Z,38.07
2024-01-11T20:35:07.615Z,34.97
2024-01-11T20:37:35.341Z,36.73
2024-01-11T20:40:02.187Z,35.40
2024-01-11T20:42:29.364Z,36.97
2024-01-11T20:44:56.210Z,34.83
2024-01-11T20:47:23.751Z,35.77
2024-01-11T20:49:51.960Z,38.50
2024-01-11T20:52:22.432Z,34.27
2024-01-11T20:54:50.817Z,35.30
2024-01-11T20:57:18.952Z,34.00
2024-01-11T20:59:45.904Z,35.00
2024-01-11T21:02:13.082Z,33.33
2024-01-11T21:04:40.066Z,30.77
2024-01-11T21:07:07.247Z,31.60
2024-01-11T21:09:34.439Z,29.77
2024-01-11T21:12:01.915Z,30.07
2024-01-11T21:14:28.813Z,34.23
2024-01-11T21:16:55.919Z,34.20
2024-01-11T21:19:22.720Z,34.17
2024-01-11T21:21:51.789Z,31.13
2024-01-11T21:24:20.239Z,29.00
2024-01-11T21:26:47.663Z,29.37
2024-01-11T21:29:14.503Z,28.47
2024-01-11T21:31:41.631Z,29.27
2024-01-11T21:34:08.542Z,29.33
2024-01-11T21:36:37.534Z,26.67
2024-01-11T21:39:04.701Z,26.57
2024-01-11T21:41:32.154Z,26.17
2024-01-11T21:43:59.604Z,28.60
2024-01-11T21:46:27.611Z,28.70
2024-01-11T21:48:55.333Z,29.47
2024-01-11T21:51:22.535Z,26.47
2024-01-11T21:53:49.524Z,30.07
2024-01-11T21:56:16.749Z,29.97
2024-01-11T21:58:43.829Z,30.23
2024-01-11T22:01:10.993Z,28.33
2024-01-11T22:03:38.308Z,28.10
2024-01-11T22:06:05.964Z,29.53
2024-01-11T22:08:32.965Z,29.53
2024-01-11T22:11:00.138Z,32.83
2024-01-11T22:13:27.295Z,34.73
2024-01-11T22:15:54.786Z,32.17
2024-01-11T22:18:21.733Z,31.67
2024-01-11T22:20:49.332Z,30.00
2024-01-11T22:23:16.307Z,26.60
2024-01-11T22:25:44.829Z,28.20
2024-01-11T22:28:11.651Z,28.77
2024-01-11T22:30:39.206Z,29.23
2024-01-11T22:33:06.353Z,29.50
2024-01-11T22:35:33.699Z,29.23
2024-01-11T22:38:01.354Z,29.23
2024-01-11T22:40:28.427Z,29.60
2024-01-11T22:42:55.251Z,28.73
2024-01-11T22:45:22.333Z,29.83
2024-01-11T22:47:49.274Z,28.07
2024-01-11T22:50:16.482Z,27.40
2024-01-11T22:52:43.422Z,27.90
2024-01-11T22:55:10.553Z,26.90
2024-01-11T22:57:37.424Z,26.70
2024-01-11T23:00:21.503Z,29.53
2024-01-11T23:02:50.344Z,27.13
2024-01-11T23:05:18.962Z,30.05
2024-01-11T23:07:46.456Z,30.00
2024-01-11T23:10:13.983Z,27.00
2024-01-11T23:12:44.674Z,28.77
2024-01-11T23:15:12.652Z,28.27
2024-01-11T23:17:39.898Z,28.67
2024-01-11T23:20:08.833Z,28.53
2024-01-11T23:22:36.587Z,29.30
2024-01-11T23:25:03.954Z,27.23
2024-01-11T23:27:30.778Z,28.53
2024-01-11T23:29:58.049Z,27.73
2024-01-11T23:32:24.976Z,27.10
2024-01-11T23:34:52.256Z,28.80
2024-01-11T23:37:19.263Z,27.37
2024-01-11T23:39:46.792Z,27.73
2024-01-11T23:42:14.045Z,26.00
2024-01-11T23:44:42.634Z,27.83
2024-01-11T23:47:09.613Z,26.03
2024-01-11T23:49:36.796Z,27.43
2024-01-11T23:52:03.901Z,27.87
2024-01-11T23:54:31.360Z,27.13
2024-01-11T23:56:58.658Z,27.90
2024-01-11T23:59:25.830Z,28.20
